Jhelum Weather



Jhelum's Current Weather

Temprature 37.13o few clouds

few clouds

Rain: 0 %

Min Temprature37.13o
Max Temprature37.13o
Humidity18
Wind Speed1.97 m/h
Sun Rise05:11:25
Sun Set18:51:46
Current Time: 08-May-2021 15:40:52
Lat/Lon: 32.9331, 73.7264




Jhelum's Geo Location



Jhelum's Weather Forecast

Time Overall Temp Min Temp Max Temp Humidity Wind Speed Rain
08-May-2021 (Sat)
17:00:00 few clouds 37.020 37.020 37.020 18 2.76 m/h 0 %
20:00:00 few clouds 35.550 32.600 35.550 21 1.39 m/h 0 %
23:00:00 scattered clouds 31.870 29.300 31.870 28 1.01 m/h 0 %
09-May-2021 (Sun)
02:00:00 light rain 27.070 27.070 27.070 38 0.98 m/h 23 %
05:00:00 broken clouds 25.720 25.720 25.720 40 1.93 m/h 0 %
08:00:00 scattered clouds 31.000 31.000 31.000 28 1.16 m/h 0 %
11:00:00 broken clouds 36.330 36.330 36.330 20 1.26 m/h 0 %
14:00:00 scattered clouds 39.240 39.240 39.240 16 3.67 m/h 0 %
17:00:00 scattered clouds 32.160 32.160 32.160 30 10.11 m/h 0 %
20:00:00 light rain 27.120 27.120 27.120 41 7.08 m/h 74 %
23:00:00 light rain 26.370 26.370 26.370 45 3.38 m/h 17 %
10-May-2021 (Mon)
02:00:00 overcast clouds 26.310 26.310 26.310 45 1.13 m/h 0 %
05:00:00 overcast clouds 24.760 24.760 24.760 49 1.24 m/h 0 %
08:00:00 overcast clouds 29.690 29.690 29.690 34 2.32 m/h 0 %
11:00:00 light rain 34.570 34.570 34.570 23 1.71 m/h 14 %
14:00:00 overcast clouds 37.710 37.710 37.710 17 1.44 m/h 0 %
17:00:00 overcast clouds 37.680 37.680 37.680 17 1.23 m/h 0 %
20:00:00 scattered clouds 31.620 31.620 31.620 26 2.91 m/h 0 %
23:00:00 few clouds 29.270 29.270 29.270 31 2.16 m/h 0 %
11-May-2021 (Tue)
02:00:00 clear sky 27.710 27.710 27.710 33 1.77 m/h 0 %
05:00:00 light rain 26.100 26.100 26.100 39 2.65 m/h 26 %
08:00:00 broken clouds 32.680 32.680 32.680 24 3.68 m/h 0 %
11:00:00 scattered clouds 38.360 38.360 38.360 17 4.2 m/h 0 %
14:00:00 clear sky 40.740 40.740 40.740 13 3.37 m/h 0 %
17:00:00 clear sky 40.920 40.920 40.920 11 1.33 m/h 0 %
20:00:00 scattered clouds 35.780 35.780 35.780 16 3.12 m/h 0 %
23:00:00 light rain 28.960 28.960 28.960 37 3.81 m/h 168 %
12-May-2021 (Wed)
02:00:00 light rain 27.840 27.840 27.840 40 3.75 m/h 13 %
05:00:00 light rain 25.670 25.670 25.670 51 1.81 m/h 17 %
08:00:00 light rain 28.050 28.050 28.050 42 2.77 m/h 71 %
11:00:00 light rain 32.580 32.580 32.580 28 4.25 m/h 64 %
14:00:00 light rain 31.480 31.480 31.480 31 8.13 m/h 17 %
17:00:00 light rain 29.540 29.540 29.540 36 7.56 m/h 15 %
20:00:00 light rain 26.350 26.350 26.350 47 3.18 m/h 79 %
23:00:00 light rain 25.060 25.060 25.060 51 4.03 m/h 43 %
13-May-2021 (Thu)
02:00:00 light rain 23.370 23.370 23.370 58 1.1 m/h 149 %
05:00:00 moderate rain 21.880 21.880 21.880 69 1.7 m/h 312 %
08:00:00 light rain 25.890 25.890 25.890 51 1.71 m/h 118 %
11:00:00 scattered clouds 30.870 30.870 30.870 34 2.87 m/h 0 %
14:00:00 clear sky 33.820 33.820 33.820 26 2.48 m/h 0 %

Famous Cities (60)